Time;durP1;ratioP1;P1;durP2;ratioP2;P2;SDS_P1;SDS_P2;PMS_P1;PMS_P2;Temp;Humidity;BMP_temperature;BMP_pressure;BME280_temperature;BME280_humidity;BME280_pressure;Samples;Min_cycle;Max_cycle;Signal;HPM_P1;HPM_P2
2023/07/25 00:00:09;;;;;;;3.13;1.40;;;15.50;99.90;;;;;;5074031;28;20198;-77
2023/07/25 00:02:34;;;;;;;5.80;2.30;;;15.40;99.90;;;;;;5073582;28;20425;-77
2023/07/25 00:05:00;;;;;;;5.17;1.70;;;15.40;99.90;;;;;;5072310;28;20419;-76
2023/07/25 00:07:25;;;;;;;4.00;2.20;;;15.40;99.90;;;;;;5071241;28;20174;-77
2023/07/25 00:09:52;;;;;;;2.70;1.60;;;15.40;99.90;;;;;;5073746;28;20226;-77
2023/07/25 00:12:17;;;;;;;2.40;1.57;;;15.40;99.90;;;;;;5071517;28;20181;-77
2023/07/25 00:14:43;;;;;;;3.63;1.90;;;15.40;99.90;;;;;;5053146;28;20521;-77
2023/07/25 00:17:08;;;;;;;3.97;1.90;;;15.50;99.90;;;;;;5068911;28;20200;-76
2023/07/25 00:19:34;;;;;;;8.40;2.40;;;15.60;99.90;;;;;;5055464;28;20193;-77
2023/07/25 00:22:00;;;;;;;2.67;1.90;;;15.60;99.90;;;;;;5054924;28;20581;-77
2023/07/25 00:24:25;;;;;;;3.30;1.60;;;15.70;99.90;;;;;;5064905;28;20214;-77
2023/07/25 00:26:51;;;;;;;2.20;1.30;;;15.80;99.90;;;;;;5070607;28;20499;-77
2023/07/25 00:29:17;;;;;;;3.40;1.60;;;15.80;99.90;;;;;;5064993;28;20178;-77
2023/07/25 00:31:42;;;;;;;8.40;2.30;;;15.90;99.90;;;;;;5082155;28;20673;-77
2023/07/25 00:34:08;;;;;;;3.67;1.97;;;15.90;99.90;;;;;;5068436;28;20456;-77
2023/07/25 00:36:34;;;;;;;4.60;2.20;;;15.90;99.90;;;;;;5069090;28;20173;-77
2023/07/25 00:38:59;;;;;;;7.70;2.30;;;15.90;99.90;;;;;;5055554;28;20213;-77
2023/07/25 00:41:25;;;;;;;6.53;1.80;;;15.90;99.90;;;;;;5073167;28;20572;-77
2023/07/25 00:43:50;;;;;;;6.83;1.90;;;15.80;99.90;;;;;;5072933;28;20177;-77
2023/07/25 00:46:16;;;;;;;3.50;1.70;;;15.70;99.90;;;;;;5057699;28;20291;-77
2023/07/25 00:48:44;;;;;;;5.70;2.23;;;15.70;99.90;;;;;;5067674;28;20257;-77
2023/07/25 00:51:10;;;;;;;8.50;2.43;;;15.70;99.90;;;;;;5072786;28;20181;-77
2023/07/25 00:53:36;;;;;;;5.00;1.73;;;15.60;99.90;;;;;;5072435;28;20430;-77
2023/07/25 00:56:02;;;;;;;3.50;1.80;;;15.50;99.90;;;;;;5072904;28;20208;-77
2023/07/25 00:58:30;;;;;;;4.27;1.97;;;15.50;99.90;;;;;;5073082;28;20185;-76
2023/07/25 01:01:06;;;;;;;6.10;2.03;;;15.50;99.90;;;;;;5054375;28;20254;-76
2023/07/25 01:03:34;;;;;;;2.60;1.30;;;15.40;99.90;;;;;;5044269;28;20440;-77
2023/07/25 01:06:03;;;;;;;4.60;2.30;;;15.30;99.90;;;;;;5054516;28;20460;-77
2023/07/25 01:08:28;;;;;;;3.97;1.57;;;15.30;99.90;;;;;;5065261;28;20527;-77
2023/07/25 01:10:54;;;;;;;3.83;1.90;;;15.20;99.90;;;;;;5068778;28;20426;-76
2023/07/25 01:13:20;;;;;;;3.60;1.60;;;15.20;99.90;;;;;;5052572;28;20222;-77
2023/07/25 01:15:50;;;;;;;8.27;1.93;;;15.10;99.90;;;;;;5069767;28;20224;-76
2023/07/25 01:18:16;;;;;;;2.73;1.77;;;15.10;99.90;;;;;;5054278;28;20437;-76
2023/07/25 01:20:42;;;;;;;3.67;1.90;;;15.10;99.90;;;;;;5072165;28;20427;-76
2023/07/25 01:23:10;;;;;;;11.93;2.40;;;15.10;99.90;;;;;;5072749;28;20469;-76
2023/07/25 01:25:36;;;;;;;5.37;1.90;;;15.10;99.90;;;;;;5068461;28;20446;-76
2023/07/25 01:28:02;;;;;;;7.03;2.67;;;15.20;99.90;;;;;;5085454;28;20435;-76
2023/07/25 01:30:28;;;;;;;5.00;1.80;;;15.20;99.90;;;;;;5054555;28;20184;-76
2023/07/25 01:32:54;;;;;;;7.57;2.33;;;15.20;99.90;;;;;;5076353;28;20587;-76
2023/07/25 01:35:20;;;;;;;3.00;1.73;;;15.20;99.90;;;;;;5069000;28;20208;-77
2023/07/25 01:37:45;;;;;;;5.83;2.23;;;15.10;99.90;;;;;;5087790;28;20423;-76
2023/07/25 01:40:11;;;;;;;3.70;2.00;;;15.10;99.90;;;;;;5075722;28;20191;-77
2023/07/25 01:42:37;;;;;;;4.33;2.30;;;15.00;99.90;;;;;;5065400;28;20182;-76
2023/07/25 01:45:03;;;;;;;4.50;2.13;;;15.00;99.90;;;;;;5083594;28;20463;-76
2023/07/25 01:47:28;;;;;;;8.07;2.27;;;15.00;99.90;;;;;;5067285;28;20276;-76
2023/07/25 01:49:54;;;;;;;8.03;2.37;;;15.00;99.90;;;;;;5050731;28;20228;-76
2023/07/25 01:52:20;;;;;;;2.53;1.90;;;14.90;99.90;;;;;;5077227;28;20196;-76
2023/07/25 01:54:49;;;;;;;3.90;1.70;;;15.00;99.90;;;;;;5070790;28;20208;-76
2023/07/25 01:57:14;;;;;;;3.53;1.67;;;15.00;99.90;;;;;;5051099;28;20488;-76
2023/07/25 01:59:40;;;;;;;3.67;2.17;;;15.00;99.90;;;;;;5050091;28;21000;-76
2023/07/25 02:02:06;;;;;;;5.20;1.93;;;14.90;99.90;;;;;;5071834;28;20563;-76
2023/07/25 02:04:31;;;;;;;2.80;1.57;;;14.90;99.90;;;;;;5071425;28;20523;-76
2023/07/25 02:06:57;;;;;;;3.77;1.77;;;14.90;99.90;;;;;;5071463;28;20184;-77
2023/07/25 02:09:23;;;;;;;3.80;1.87;;;14.90;99.90;;;;;;5067494;28;20207;-76
2023/07/25 02:11:48;;;;;;;4.60;1.47;;;14.90;99.90;;;;;;5053772;28;20367;-76
2023/07/25 02:14:14;;;;;;;5.27;1.60;;;14.90;99.90;;;;;;5071052;28;20212;-76
2023/07/25 02:16:40;;;;;;;2.67;1.50;;;14.90;99.90;;;;;;5054064;28;20288;-76
2023/07/25 02:19:06;;;;;;;5.93;1.97;;;14.90;99.90;;;;;;5071666;28;20177;-76
2023/07/25 02:21:32;;;;;;;3.23;1.53;;;14.90;99.90;;;;;;5070020;28;20447;-76
2023/07/25 02:23:58;;;;;;;5.30;1.53;;;14.80;99.90;;;;;;5046952;28;20511;-76
2023/07/25 02:26:24;;;;;;;5.20;1.50;;;14.90;99.90;;;;;;5071731;28;20817;-76
2023/07/25 02:28:49;;;;;;;3.60;1.73;;;14.80;99.90;;;;;;5044542;28;20196;-76
2023/07/25 02:31:15;;;;;;;4.10;2.13;;;14.80;99.90;;;;;;5054016;28;20192;-76
2023/07/25 02:33:40;;;;;;;3.93;1.63;;;14.80;99.90;;;;;;5065939;28;20724;-76
2023/07/25 02:36:06;;;;;;;6.23;1.73;;;14.80;99.90;;;;;;5033655;28;20189;-75
2023/07/25 02:38:32;;;;;;;7.10;2.70;;;14.80;99.90;;;;;;5076517;28;20193;-76
2023/07/25 02:40:57;;;;;;;2.60;1.33;;;14.80;99.90;;;;;;5063416;28;20615;-75
2023/07/25 02:43:23;;;;;;;5.03;1.90;;;14.80;99.90;;;;;;5048816;28;20192;-76
2023/07/25 02:45:53;;;;;;;3.17;1.80;;;14.80;99.90;;;;;;5052175;28;20631;-76
2023/07/25 02:48:19;;;;;;;2.60;1.70;;;14.80;99.90;;;;;;5045413;28;20514;-76
2023/07/25 02:50:44;;;;;;;3.90;1.93;;;14.70;99.90;;;;;;5059583;28;20503;-75
2023/07/25 02:53:10;;;;;;;3.60;1.73;;;14.70;99.90;;;;;;5051143;28;20225;-76
2023/07/25 02:55:37;;;;;;;3.30;2.10;;;14.70;99.90;;;;;;5078463;28;20208;-76
2023/07/25 02:58:02;;;;;;;4.53;1.60;;;14.60;99.90;;;;;;5055781;28;20173;-76
2023/07/25 03:00:28;;;;;;;5.13;2.00;;;14.70;99.90;;;;;;5066087;28;20419;-76
2023/07/25 03:02:53;;;;;;;3.40;1.60;;;14.60;99.90;;;;;;5053403;28;20582;-76
2023/07/25 03:05:19;;;;;;;5.20;1.90;;;14.70;99.90;;;;;;5059195;28;20189;-76
2023/07/25 03:07:45;;;;;;;4.93;2.20;;;14.70;99.90;;;;;;5067592;28;20629;-76
2023/07/25 03:10:10;;;;;;;4.43;2.37;;;14.70;99.90;;;;;;5059321;28;20871;-76
2023/07/25 03:12:36;;;;;;;3.47;1.97;;;14.60;99.90;;;;;;5046703;28;20231;-76
2023/07/25 03:15:03;;;;;;;3.33;2.00;;;14.70;99.90;;;;;;5066127;28;20224;-76
2023/07/25 03:17:30;;;;;;;3.33;1.70;;;14.70;99.90;;;;;;5063520;28;20631;-76
2023/07/25 03:19:56;;;;;;;4.40;2.43;;;14.70;99.90;;;;;;5071071;28;20438;-76
2023/07/25 03:22:22;;;;;;;5.97;2.20;;;14.60;99.90;;;;;;5070674;28;20873;-76
2023/07/25 03:24:48;;;;;;;4.77;2.30;;;14.50;99.90;;;;;;5070601;28;20189;-76
2023/07/25 03:27:18;;;;;;;4.80;2.37;;;14.40;99.90;;;;;;5063999;28;20181;-76
2023/07/25 03:29:44;;;;;;;4.40;2.47;;;14.40;99.90;;;;;;5071292;28;20419;-76
2023/07/25 03:32:09;;;;;;;4.73;1.80;;;14.40;99.90;;;;;;5064804;28;20431;-75
2023/07/25 03:34:35;;;;;;;3.33;1.97;;;14.40;99.90;;;;;;5070636;28;20963;-76
2023/07/25 03:37:01;;;;;;;4.80;2.47;;;14.50;99.90;;;;;;5070675;28;20600;-76
2023/07/25 03:39:26;;;;;;;7.47;2.93;;;14.60;99.90;;;;;;5071112;28;20223;-76
2023/07/25 03:41:52;;;;;;;5.80;2.80;;;14.60;99.90;;;;;;5074251;28;20531;-77
2023/07/25 03:44:19;;;;;;;3.07;2.00;;;14.60;99.90;;;;;;5056423;28;20216;-77
2023/07/25 03:46:44;;;;;;;3.20;1.70;;;14.60;99.90;;;;;;5055912;28;20272;-77
2023/07/25 03:49:11;;;;;;;4.93;1.77;;;14.60;99.90;;;;;;5073859;28;20973;-77
2023/07/25 03:51:36;;;;;;;3.83;2.20;;;14.70;99.90;;;;;;5043230;28;20273;-77
2023/07/25 03:54:06;;;;;;;5.20;2.20;;;14.70;99.90;;;;;;5043851;28;20889;-77
2023/07/25 03:56:32;;;;;;;4.03;2.30;;;14.70;99.90;;;;;;5055939;28;20200;-76
2023/07/25 03:59:01;;;;;;;5.50;2.40;;;14.70;99.90;;;;;;5043582;28;20802;-77
2023/07/25 04:01:27;;;;;;;4.93;2.90;;;14.70;99.90;;;;;;5074726;28;20808;-77
2023/07/25 04:03:53;;;;;;;4.57;2.10;;;14.70;99.90;;;;;;5060839;28;20465;-77
2023/07/25 04:06:19;;;;;;;9.27;2.80;;;14.70;99.90;;;;;;5073872;28;20419;-77
2023/07/25 04:08:45;;;;;;;4.97;2.10;;;14.70;99.90;;;;;;5072283;28;20181;-77
2023/07/25 04:11:12;;;;;;;5.83;3.10;;;14.80;99.90;;;;;;5077658;28;20802;-75
2023/07/25 04:13:38;;;;;;;3.70;2.00;;;14.80;99.90;;;;;;5056737;28;20629;-75
2023/07/25 04:16:04;;;;;;;6.13;2.70;;;14.80;99.90;;;;;;5074115;28;20466;-75
2023/07/25 04:18:29;;;;;;;3.90;2.57;;;14.80;99.90;;;;;;5073368;28;20209;-75
2023/07/25 04:20:55;;;;;;;6.30;2.50;;;14.80;99.90;;;;;;5073414;28;20177;-75
2023/07/25 04:23:22;;;;;;;3.47;2.00;;;14.80;99.90;;;;;;5073541;28;20812;-75
2023/07/25 04:25:48;;;;;;;4.30;2.73;;;14.80;99.90;;;;;;5073845;28;20268;-75
2023/07/25 04:28:13;;;;;;;7.63;2.67;;;14.90;99.90;;;;;;5074291;28;20423;-75
2023/07/25 04:30:39;;;;;;;7.10;2.73;;;15.00;99.90;;;;;;5073834;28;20480;-75
2023/07/25 04:33:05;;;;;;;6.50;2.53;;;15.00;99.90;;;;;;5075016;28;20177;-75
2023/07/25 04:35:31;;;;;;;8.77;2.63;;;15.00;99.90;;;;;;5073115;28;20284;-75
2023/07/25 04:37:56;;;;;;;6.10;1.80;;;15.10;99.90;;;;;;5055468;28;20262;-75
2023/07/25 04:40:22;;;;;;;4.10;2.03;;;15.10;99.90;;;;;;5057097;28;20528;-75
2023/07/25 04:42:47;;;;;;;4.83;2.40;;;15.10;99.90;;;;;;5075823;28;20189;-75
2023/07/25 04:45:13;;;;;;;4.47;2.20;;;15.20;99.90;;;;;;5073228;28;20615;-75
2023/07/25 04:47:38;;;;;;;22.80;12.50;;;15.20;99.90;;;;;;5073657;28;20196;-75
2023/07/25 04:50:04;;;;;;;12.60;4.13;;;15.30;99.90;;;;;;5042938;28;20196;-75
2023/07/25 04:52:30;;;;;;;3.80;2.13;;;15.30;99.90;;;;;;5074200;28;20229;-76
2023/07/25 04:54:57;;;;;;;3.23;2.17;;;15.20;99.90;;;;;;5068643;28;20205;-76
2023/07/25 04:57:26;;;;;;;4.00;2.10;;;15.20;99.90;;;;;;5059722;28;20346;-76
2023/07/25 04:59:52;;;;;;;4.00;1.80;;;15.20;99.90;;;;;;5071780;28;20415;-76
2023/07/25 05:02:20;;;;;;;2.40;1.63;;;15.20;99.90;;;;;;5074136;28;20416;-76
2023/07/25 05:04:46;;;;;;;3.30;1.93;;;15.20;99.90;;;;;;5069001;28;20420;-76
2023/07/25 05:07:13;;;;;;;4.67;1.73;;;15.10;99.90;;;;;;5074902;28;20426;-76
2023/07/25 05:09:39;;;;;;;4.77;2.00;;;15.10;99.90;;;;;;5074777;28;20655;-76
2023/07/25 05:12:06;;;;;;;4.63;2.10;;;15.10;99.90;;;;;;5059622;28;20511;-76
2023/07/25 05:14:32;;;;;;;5.50;2.10;;;15.10;99.90;;;;;;5070595;28;20546;-76
2023/07/25 05:16:57;;;;;;;2.60;1.63;;;15.20;99.90;;;;;;5073750;28;20422;-76
2023/07/25 05:19:23;;;;;;;3.93;2.17;;;15.20;99.90;;;;;;5074542;28;20181;-77
2023/07/25 05:21:49;;;;;;;4.70;2.50;;;15.20;99.90;;;;;;5074341;28;20199;-77
2023/07/25 05:24:15;;;;;;;5.17;2.63;;;15.20;99.90;;;;;;5058314;28;20513;-77
2023/07/25 05:26:41;;;;;;;6.17;2.30;;;15.30;99.90;;;;;;5073742;28;20268;-77
2023/07/25 05:29:07;;;;;;;4.67;2.07;;;15.30;99.90;;;;;;5061710;28;20774;-77
2023/07/25 05:31:33;;;;;;;6.70;3.00;;;15.30;99.90;;;;;;5074364;28;20451;-77
2023/07/25 05:33:58;;;;;;;3.93;1.93;;;15.30;99.90;;;;;;5061749;28;20260;-77
2023/07/25 05:36:24;;;;;;;5.73;2.47;;;15.20;99.90;;;;;;5069756;28;20181;-77
2023/07/25 05:38:50;;;;;;;8.40;2.87;;;15.20;99.90;;;;;;5073284;28;20699;-78
2023/07/25 05:41:15;;;;;;;3.77;2.10;;;15.20;99.90;;;;;;5072720;28;20189;-77
2023/07/25 05:43:41;;;;;;;5.20;2.60;;;15.20;99.90;;;;;;5072116;28;20180;-77
2023/07/25 05:46:07;;;;;;;4.13;2.37;;;15.30;99.90;;;;;;5072512;28;20219;-77
2023/07/25 05:48:33;;;;;;;4.00;2.47;;;15.30;99.90;;;;;;5047947;28;20197;-77
2023/07/25 05:50:58;;;;;;;5.93;2.17;;;15.30;99.90;;;;;;5067141;28;20415;-77
2023/07/25 05:53:24;;;;;;;6.60;1.90;;;15.30;99.90;;;;;;5072826;28;20185;-77
2023/07/25 05:55:50;;;;;;;5.20;2.80;;;15.30;99.90;;;;;;5055155;28;20714;-77
2023/07/25 05:58:17;;;;;;;5.10;2.17;;;15.30;99.90;;;;;;5073717;28;20179;-77
2023/07/25 06:00:43;;;;;;;4.10;2.00;;;15.40;99.90;;;;;;5073309;28;20249;-77
2023/07/25 06:03:12;;;;;;;3.63;2.10;;;15.50;99.90;;;;;;5072264;28;20415;-77
2023/07/25 06:05:37;;;;;;;4.53;1.97;;;15.60;99.90;;;;;;5073316;28;20422;-77
2023/07/25 06:08:03;;;;;;;5.40;2.80;;;15.70;99.90;;;;;;5072151;28;20423;-77
2023/07/25 06:10:29;;;;;;;8.37;1.73;;;15.70;99.90;;;;;;5044738;28;21603;-77
2023/07/25 06:12:54;;;;;;;6.10;2.37;;;15.70;99.90;;;;;;5065084;28;20200;-77
2023/07/25 06:15:20;;;;;;;3.87;2.00;;;15.70;99.90;;;;;;5065715;28;20244;-77
2023/07/25 06:17:46;;;;;;;4.17;2.07;;;15.70;99.90;;;;;;5083849;28;20195;-77
2023/07/25 06:20:12;;;;;;;4.30;2.10;;;15.80;99.90;;;;;;5056815;28;20614;-77
2023/07/25 06:22:38;;;;;;;3.23;1.60;;;15.80;99.90;;;;;;5071094;28;20184;-77
2023/07/25 06:25:05;;;;;;;2.40;1.57;;;15.70;99.90;;;;;;5071127;28;20438;-77
2023/07/25 06:27:31;;;;;;;4.33;1.87;;;15.70;99.90;;;;;;5071536;28;20650;-76
2023/07/25 06:29:56;;;;;;;5.70;2.40;;;15.80;99.90;;;;;;5059058;28;20430;-77
2023/07/25 06:32:22;;;;;;;3.83;1.90;;;15.90;99.90;;;;;;5071136;28;20188;-77
2023/07/25 06:34:48;;;;;;;4.70;2.00;;;16.00;99.90;;;;;;5064944;28;20216;-76
2023/07/25 06:37:14;;;;;;;5.00;2.37;;;16.10;99.90;;;;;;5053232;28;20922;-76
2023/07/25 06:39:39;;;;;;;8.90;2.97;;;16.10;99.90;;;;;;5071553;28;20181;-76
2023/07/25 06:42:06;;;;;;;4.20;2.33;;;16.10;99.90;;;;;;5071135;28;20192;-76
2023/07/25 06:44:31;;;;;;;10.13;1.83;;;16.10;99.90;;;;;;5053175;28;20193;-76
2023/07/25 06:46:57;;;;;;;8.83;2.80;;;16.10;99.90;;;;;;5053005;28;20439;-76
2023/07/25 06:49:23;;;;;;;4.97;2.00;;;16.10;99.90;;;;;;5053510;28;20203;-76
2023/07/25 06:51:48;;;;;;;4.10;2.50;;;16.10;99.90;;;;;;5053569;28;20189;-76
2023/07/25 06:54:14;;;;;;;3.87;1.77;;;16.20;99.90;;;;;;5066227;28;20273;-76
2023/07/25 06:56:40;;;;;;;3.00;1.77;;;16.30;99.90;;;;;;5050905;28;20200;-76
2023/07/25 06:59:05;;;;;;;3.10;1.80;;;16.20;99.90;;;;;;5070892;28;20625;-77
2023/07/25 07:01:31;;;;;;;3.83;2.20;;;16.20;99.90;;;;;;5056258;28;20226;-76
2023/07/25 07:03:57;;;;;;;2.57;1.70;;;16.20;99.90;;;;;;5054157;28;20189;-77
2023/07/25 07:06:22;;;;;;;2.77;1.80;;;16.30;99.90;;;;;;5050598;28;20706;-76
2023/07/25 07:08:48;;;;;;;5.50;2.10;;;16.30;99.90;;;;;;5046553;28;20181;-76
2023/07/25 07:11:14;;;;;;;2.87;1.73;;;16.30;99.90;;;;;;5069402;28;20181;-76
2023/07/25 07:13:39;;;;;;;3.73;1.83;;;16.40;99.90;;;;;;5051435;28;20203;-76
2023/07/25 07:16:05;;;;;;;11.60;2.07;;;16.40;99.90;;;;;;5073335;28;20254;-77
2023/07/25 07:18:31;;;;;;;3.20;1.53;;;16.50;99.90;;;;;;5080531;28;20197;-77
2023/07/25 07:20:56;;;;;;;2.73;1.70;;;16.60;99.90;;;;;;5054535;28;20824;-77
2023/07/25 07:23:22;;;;;;;2.57;1.70;;;16.70;99.90;;;;;;5074216;28;20246;-77
2023/07/25 07:25:50;;;;;;;3.30;1.30;;;16.80;99.90;;;;;;5053951;28;20284;-77
2023/07/25 07:28:16;;;;;;;2.80;1.60;;;17.10;99.90;;;;;;5083426;28;20221;-77
2023/07/25 07:30:47;;;;;;;4.90;1.60;;;17.20;99.90;;;;;;5072477;28;20750;-77
2023/07/25 07:33:12;;;;;;;2.60;1.43;;;17.30;99.90;;;;;;5061223;28;20189;-77
2023/07/25 07:35:38;;;;;;;3.23;1.50;;;17.50;99.90;;;;;;5082819;28;20463;-77
2023/07/25 07:38:03;;;;;;;2.30;1.20;;;17.90;99.90;;;;;;5055754;28;20192;-77
2023/07/25 07:40:29;;;;;;;3.63;1.57;;;18.50;99.90;;;;;;5047675;28;20288;-76
2023/07/25 07:42:55;;;;;;;2.47;1.20;;;18.70;99.90;;;;;;5073448;28;20694;-77
2023/07/25 07:45:23;;;;;;;3.50;1.40;;;19.10;99.90;;;;;;5064744;28;20189;-77
2023/07/25 07:47:49;;;;;;;3.97;1.67;;;19.20;99.90;;;;;;5068321;28;20292;-77
2023/07/25 07:50:14;;;;;;;2.03;0.90;;;19.20;99.90;;;;;;5046960;28;21152;-76
2023/07/25 07:52:41;;;;;;;12.07;2.30;;;19.00;99.90;;;;;;5052299;28;20205;-76
2023/07/25 07:55:09;;;;;;;2.60;1.37;;;18.70;99.90;;;;;;5064779;28;20193;-72
2023/07/25 07:57:39;;;;;;;6.73;1.87;;;18.70;99.90;;;;;;5070775;28;20896;-76
2023/07/25 08:00:06;;;;;;;2.00;1.00;;;18.70;99.90;;;;;;5052242;28;20428;-76
2023/07/25 08:02:32;;;;;;;2.47;1.40;;;18.80;99.90;;;;;;5048742;28;20445;-76
2023/07/25 08:04:57;;;;;;;2.83;1.17;;;19.20;99.90;;;;;;5033257;28;20424;-77
2023/07/25 08:07:23;;;;;;;35.50;1.80;;;19.50;99.90;;;;;;5052808;28;20184;-77
2023/07/25 08:09:58;;;;;;;5.87;2.27;;;20.00;99.90;;;;;;5067382;28;20662;-76
2023/07/25 08:12:23;;;;;;;3.57;1.70;;;20.30;99.90;;;;;;5053995;28;20212;-76
2023/07/25 08:14:49;;;;;;;3.83;1.63;;;20.10;99.90;;;;;;5071671;28;20503;-76
2023/07/25 08:17:18;;;;;;;3.37;1.60;;;19.80;99.90;;;;;;5071484;28;20247;-76
2023/07/25 08:19:44;;;;;;;4.03;2.07;;;19.80;99.90;;;;;;5052723;28;20638;-77
2023/07/25 08:22:10;;;;;;;4.00;1.30;;;19.40;99.90;;;;;;5052178;28;20442;-76
2023/07/25 08:24:36;;;;;;;2.83;1.60;;;19.30;99.90;;;;;;5052945;28;20181;-76
2023/07/25 08:27:02;;;;;;;2.47;1.40;;;19.10;99.90;;;;;;5066398;28;20427;-75
2023/07/25 08:29:28;;;;;;;3.50;1.20;;;19.20;99.90;;;;;;5047806;28;20415;-76
2023/07/25 08:31:53;;;;;;;3.30;1.17;;;18.70;99.90;;;;;;5070653;28;20185;-76
2023/07/25 08:34:20;;;;;;;2.03;1.00;;;18.60;99.90;;;;;;5069560;28;20603;-76
2023/07/25 08:36:46;;;;;;;3.13;1.53;;;18.50;99.90;;;;;;5076867;28;20196;-75
2023/07/25 08:39:11;;;;;;;2.17;1.43;;;18.30;99.90;;;;;;5071548;28;20501;-77
2023/07/25 08:41:45;;;;;;;2.70;1.50;;;18.10;99.90;;;;;;5053373;28;20470;-76
2023/07/25 08:44:11;;;;;;;2.43;1.10;;;17.80;99.90;;;;;;5049166;28;20222;-76
2023/07/25 08:46:41;;;;;;;4.50;1.40;;;17.70;99.90;;;;;;5072001;28;20423;-76
2023/07/25 08:49:14;;;;;;;2.60;0.97;;;17.60;99.90;;;;;;5068900;28;20416;-76
2023/07/25 08:51:42;;;;;;;1.97;1.07;;;17.40;99.90;;;;;;5073819;28;21030;-77
2023/07/25 08:54:11;;;;;;;2.63;1.10;;;17.20;99.90;;;;;;5066389;28;20497;-78
2023/07/25 08:56:38;;;;;;;3.00;1.03;;;16.90;99.90;;;;;;5066086;28;20411;-79
2023/07/25 08:59:06;;;;;;;1.97;0.93;;;16.60;99.90;;;;;;5073441;28;20427;-78
2023/07/25 09:01:32;;;;;;;2.00;1.00;;;16.50;99.90;;;;;;5073968;28;20464;-79
2023/07/25 09:04:00;;;;;;;1.87;0.70;;;16.40;99.90;;;;;;5074066;28;20415;-79
2023/07/25 09:06:27;;;;;;;4.53;1.50;;;16.30;99.90;;;;;;5076231;28;20411;-78
2023/07/25 09:08:53;;;;;;;2.10;1.00;;;16.30;99.90;;;;;;5074603;28;20407;-78
2023/07/25 09:11:20;;;;;;;2.27;1.03;;;16.40;99.90;;;;;;5073843;28;20403;-78
2023/07/25 09:13:47;;;;;;;2.13;1.13;;;16.60;99.90;;;;;;5072840;28;20411;-78
2023/07/25 09:16:13;;;;;;;1.63;0.90;;;16.90;99.90;;;;;;5074095;28;20463;-79
2023/07/25 09:18:38;;;;;;;2.10;1.13;;;17.30;99.90;;;;;;5054606;28;20824;-77
2023/07/25 09:21:04;;;;;;;2.17;0.70;;;17.70;99.90;;;;;;5072714;28;20659;-77
2023/07/25 09:23:30;;;;;;;2.33;1.10;;;18.00;99.90;;;;;;5073061;28;20178;-77
2023/07/25 09:26:08;;;;;;;11.33;1.30;;;18.20;99.90;;;;;;5073414;28;20260;-77
2023/07/25 09:28:34;;;;;;;1.90;0.70;;;18.40;99.90;;;;;;5072183;28;20181;-76
2023/07/25 09:31:06;;;;;;;1.57;0.83;;;18.60;99.90;;;;;;5053520;28;20431;-77
2023/07/25 09:33:31;;;;;;;1.70;0.80;;;19.30;99.90;;;;;;5070193;28;20217;-76
2023/07/25 09:35:58;;;;;;;2.60;1.43;;;19.90;99.90;;;;;;5068917;28;20486;-76
2023/07/25 09:38:24;;;;;;;3.60;1.30;;;19.80;99.90;;;;;;5050382;28;20254;-78
2023/07/25 09:40:49;;;;;;;3.30;1.00;;;19.90;99.90;;;;;;5065944;28;20458;-76
2023/07/25 09:43:22;;;;;;;3.57;0.90;;;20.40;99.90;;;;;;5067792;28;20183;-77
2023/07/25 09:45:55;;;;;;;1.53;0.67;;;20.40;99.90;;;;;;5071858;28;20626;-77
2023/07/25 09:48:21;;;;;;;2.07;0.87;;;20.50;99.90;;;;;;5071620;28;20415;-77
2023/07/25 09:50:48;;;;;;;2.37;1.40;;;20.30;99.90;;;;;;5053642;28;20465;-76
2023/07/25 09:53:17;;;;;;;1.70;1.00;;;20.20;99.90;;;;;;5053263;28;20455;-77
2023/07/25 09:55:45;;;;;;;2.90;1.20;;;20.50;99.90;;;;;;5071171;28;20454;-76
2023/07/25 09:58:11;;;;;;;2.83;1.30;;;20.30;99.90;;;;;;5071175;28;20470;-77
2023/07/25 10:00:37;;;;;;;2.53;1.10;;;20.60;99.90;;;;;;5070915;28;20403;-76
2023/07/25 10:03:04;;;;;;;1.80;1.00;;;20.80;99.90;;;;;;5071623;28;20441;-77
2023/07/25 10:05:29;;;;;;;2.57;0.90;;;20.80;99.90;;;;;;5051807;28;20419;-76
2023/07/25 10:07:57;;;;;;;2.20;1.00;;;21.00;99.90;;;;;;5070920;28;20461;-76
2023/07/25 10:10:24;;;;;;;2.57;1.00;;;21.00;99.90;;;;;;5053158;28;20189;-77
2023/07/25 10:12:50;;;;;;;2.43;1.00;;;21.00;99.90;;;;;;5069692;28;20498;-76
2023/07/25 10:15:17;;;;;;;3.03;1.10;;;21.30;99.90;;;;;;5069906;28;20553;-76
2023/07/25 10:17:42;;;;;;;2.07;1.10;;;21.00;99.90;;;;;;5070434;28;20618;-76
2023/07/25 10:20:08;;;;;;;2.87;1.20;;;21.20;99.90;;;;;;5047748;28;20428;-76
2023/07/25 10:22:38;;;;;;;2.67;1.20;;;20.90;99.90;;;;;;5052625;28;20173;-77
2023/07/25 10:25:27;;;;;;;2.60;0.83;;;20.60;99.90;;;;;;5069123;28;20265;-75
2023/07/25 10:27:59;;;;;;;5.63;1.40;;;20.60;99.90;;;;;;5050578;28;20522;-76
2023/07/25 10:30:26;;;;;;;2.23;0.93;;;20.50;99.90;;;;;;5047798;28;20492;-76
2023/07/25 10:32:54;;;;;;;2.20;0.87;;;20.20;99.90;;;;;;5053401;28;20428;-74
2023/07/25 10:35:44;;;;;;;2.60;1.50;;;19.70;99.90;;;;;;5047402;28;20827;-76
2023/07/25 10:38:12;;;;;;;2.77;1.03;;;19.10;99.90;;;;;;5067189;28;20503;-75
2023/07/25 10:40:52;;;;;;;4.80;1.00;;;18.70;99.90;;;;;;5071320;28;20473;-77
2023/07/25 10:43:19;;;;;;;4.77;1.40;;;18.30;99.90;;;;;;5062773;28;20418;-76
2023/07/25 10:45:44;;;;;;;4.13;1.67;;;18.00;99.90;;;;;;5070721;28;20415;-77
2023/07/25 10:48:35;;;;;;;2.30;0.90;;;17.90;99.90;;;;;;5071905;28;20763;-77
2023/07/25 10:51:04;;;;;;;1.67;0.80;;;17.70;99.90;;;;;;5075958;28;20185;-75
2023/07/25 10:53:30;;;;;;;2.40;1.13;;;17.60;99.90;;;;;;5075123;28;20426;-77
2023/07/25 10:56:05;;;;;;;2.43;1.03;;;17.50;99.90;;;;;;5075249;28;20897;-77
2023/07/25 10:59:01;;;;;;;4.60;1.13;;;17.60;99.90;;;;;;5075180;28;20176;-77
2023/07/25 11:01:43;;;;;;;5.90;1.57;;;17.80;99.90;;;;;;5073882;28;20437;-77
2023/07/25 11:04:29;;;;;;;2.70;1.00;;;18.20;99.90;;;;;;5074028;28;20415;-76
2023/07/25 11:06:56;;;;;;;2.80;1.20;;;18.60;99.90;;;;;;5070354;28;20403;-76
2023/07/25 11:09:23;;;;;;;2.60;1.17;;;18.90;99.90;;;;;;5072664;28;20442;-76
2023/07/25 11:11:51;;;;;;;3.07;1.10;;;19.20;99.90;;;;;;5074477;28;20972;-75
2023/07/25 11:14:18;;;;;;;1.80;0.90;;;19.40;99.90;;;;;;5074026;28;20446;-76
2023/07/25 11:16:48;;;;;;;3.23;1.50;;;19.80;99.90;;;;;;5074402;28;20419;-76
2023/07/25 11:19:16;;;;;;;2.60;0.83;;;20.10;99.90;;;;;;5074578;28;20407;-76
2023/07/25 11:21:44;;;;;;;2.83;1.07;;;20.10;99.90;;;;;;5067789;28;20561;-74
2023/07/25 11:24:11;;;;;;;1.83;0.87;;;19.80;99.90;;;;;;5066059;28;20415;-75
2023/07/25 11:26:42;;;;;;;2.20;0.87;;;19.50;99.90;;;;;;5076131;28;20979;-76
2023/07/25 11:29:10;;;;;;;2.50;0.83;;;19.40;99.90;;;;;;5051937;28;20434;-75
2023/07/25 11:31:41;;;;;;;2.37;1.00;;;19.80;99.90;;;;;;5065690;28;20450;-76
2023/07/25 11:34:11;;;;;;;2.13;1.30;;;19.70;99.90;;;;;;5071131;28;20431;-77
2023/07/25 11:36:41;;;;;;;3.40;0.80;;;19.70;99.90;;;;;;5086388;28;20431;-77
2023/07/25 11:39:08;;;;;;;3.30;1.00;;;19.60;99.90;;;;;;5043448;28;20481;-76
2023/07/25 11:41:38;;;;;;;1.57;0.80;;;19.80;99.90;;;;;;5054615;28;20558;-76
2023/07/25 11:44:12;;;;;;;1.63;0.63;;;19.90;99.90;;;;;;5073112;28;21207;-76
2023/07/25 11:46:52;;;;;;;5.43;1.67;;;20.20;99.90;;;;;;5061692;28;20490;-76
2023/07/25 11:49:19;;;;;;;6.77;1.00;;;20.40;99.90;;;;;;5062935;28;20494;-76
2023/07/25 11:51:46;;;;;;;1.77;0.80;;;20.70;99.90;;;;;;5045920;28;20485;-77
2023/07/25 11:54:12;;;;;;;1.90;0.90;;;21.10;99.90;;;;;;5043997;28;20424;-76
2023/07/25 11:56:38;;;;;;;2.43;1.20;;;20.80;99.90;;;;;;5052860;28;20774;-76
2023/07/25 11:59:03;;;;;;;1.77;1.00;;;21.10;99.90;;;;;;5051970;28;20720;-76
2023/07/25 12:01:31;;;;;;;4.13;0.83;;;21.40;99.10;;;;;;5063066;28;20443;-75
2023/07/25 12:04:00;;;;;;;1.80;0.80;;;21.40;98.80;;;;;;5056778;28;20197;-76
2023/07/25 12:06:27;;;;;;;2.20;0.67;;;21.20;99.40;;;;;;5065620;28;20423;-75
2023/07/25 12:08:53;;;;;;;1.97;1.07;;;21.20;98.70;;;;;;5059190;28;20558;-76
2023/07/25 12:11:19;;;;;;;2.13;0.87;;;20.90;99.90;;;;;;5073228;28;20423;-76
2023/07/25 12:13:54;;;;;;;1.30;0.60;;;20.90;99.30;;;;;;5055935;28;20181;-75
2023/07/25 12:16:34;;;;;;;2.70;0.83;;;20.70;98.10;;;;;;5064544;28;20291;-75
2023/07/25 12:19:07;;;;;;;4.60;0.80;;;20.90;97.40;;;;;;5067030;28;20446;-77
2023/07/25 12:21:34;;;;;;;1.70;0.70;;;21.00;96.10;;;;;;5052131;28;20445;-75
2023/07/25 12:24:03;;;;;;;1.93;0.70;;;21.00;97.10;;;;;;5064335;28;20944;-75
2023/07/25 12:26:41;;;;;;;1.50;0.63;;;20.40;99.00;;;;;;5051218;28;20999;-75
2023/07/25 12:29:15;;;;;;;1.93;0.70;;;19.80;99.90;;;;;;5069196;28;20411;-76
2023/07/25 12:31:44;;;;;;;1.50;0.67;;;19.50;99.90;;;;;;5068605;28;20443;-74
2023/07/25 12:34:09;;;;;;;1.50;0.63;;;19.20;99.90;;;;;;5063479;28;21060;-75
2023/07/25 12:36:35;;;;;;;1.60;0.73;;;18.80;99.90;;;;;;5064945;28;20420;-75
2023/07/25 12:39:02;;;;;;;1.63;0.60;;;18.70;99.90;;;;;;5066335;28;20216;-76
2023/07/25 12:41:28;;;;;;;1.30;0.60;;;18.70;99.90;;;;;;5060434;28;20173;-76
2023/07/25 12:43:53;;;;;;;1.87;0.73;;;19.10;99.90;;;;;;5048049;28;20423;-75